sensor_id;sensor_type;location;lat;lon;timestamp;temperature;humidity
18287;DHT22;9269;50.838;12.094;2023-07-30T00:00:49;22.80;47.10
18287;DHT22;9269;50.838;12.094;2023-07-30T00:03:18;22.80;47.00
18287;DHT22;9269;50.838;12.094;2023-07-30T00:05:54;22.80;47.10
18287;DHT22;9269;50.838;12.094;2023-07-30T00:08:23;22.80;47.30
18287;DHT22;9269;50.838;12.094;2023-07-30T00:10:51;22.80;47.40
18287;DHT22;9269;50.838;12.094;2023-07-30T00:13:21;22.80;47.50
18287;DHT22;9269;50.838;12.094;2023-07-30T00:15:50;22.80;47.60
18287;DHT22;9269;50.838;12.094;2023-07-30T00:18:18;22.70;47.50
18287;DHT22;9269;50.838;12.094;2023-07-30T00:20:47;22.80;47.60
18287;DHT22;9269;50.838;12.094;2023-07-30T00:23:15;22.80;47.60
18287;DHT22;9269;50.838;12.094;2023-07-30T00:25:44;22.80;48.30
18287;DHT22;9269;50.838;12.094;2023-07-30T00:28:12;22.80;48.20
18287;DHT22;9269;50.838;12.094;2023-07-30T00:30:42;22.80;47.70
18287;DHT22;9269;50.838;12.094;2023-07-30T00:33:12;22.90;48.00
18287;DHT22;9269;50.838;12.094;2023-07-30T00:35:40;22.90;47.80
18287;DHT22;9269;50.838;12.094;2023-07-30T00:38:09;22.90;47.40
18287;DHT22;9269;50.838;12.094;2023-07-30T00:40:40;22.90;47.90
18287;DHT22;9269;50.838;12.094;2023-07-30T00:43:08;22.90;48.20
18287;DHT22;9269;50.838;12.094;2023-07-30T00:45:41;22.90;48.10
18287;DHT22;9269;50.838;12.094;2023-07-30T00:48:13;22.90;48.20
18287;DHT22;9269;50.838;12.094;2023-07-30T00:50:42;23.00;48.10
18287;DHT22;9269;50.838;12.094;2023-07-30T00:53:14;22.90;47.80
18287;DHT22;9269;50.838;12.094;2023-07-30T00:55:43;22.90;48.50
18287;DHT22;9269;50.838;12.094;2023-07-30T00:58:11;22.90;48.10
18287;DHT22;9269;50.838;12.094;2023-07-30T01:00:41;22.90;47.80
18287;DHT22;9269;50.838;12.094;2023-07-30T01:03:17;22.90;48.00
18287;DHT22;9269;50.838;12.094;2023-07-30T01:05:46;22.80;47.70
18287;DHT22;9269;50.838;12.094;2023-07-30T01:08:14;22.80;48.00
18287;DHT22;9269;50.838;12.094;2023-07-30T01:10:43;22.80;48.30
18287;DHT22;9269;50.838;12.094;2023-07-30T01:13:12;22.80;48.70
18287;DHT22;9269;50.838;12.094;2023-07-30T01:15:42;22.80;48.70
18287;DHT22;9269;50.838;12.094;2023-07-30T01:18:11;22.90;48.20
18287;DHT22;9269;50.838;12.094;2023-07-30T01:20:41;22.80;48.30
18287;DHT22;9269;50.838;12.094;2023-07-30T01:23:11;22.70;48.10
18287;DHT22;9269;50.838;12.094;2023-07-30T01:25:40;22.80;48.30
18287;DHT22;9269;50.838;12.094;2023-07-30T01:28:12;22.70;48.00
18287;DHT22;9269;50.838;12.094;2023-07-30T01:30:45;22.70;47.80
18287;DHT22;9269;50.838;12.094;2023-07-30T01:33:15;22.70;48.30
18287;DHT22;9269;50.838;12.094;2023-07-30T01:35:44;22.70;48.20
18287;DHT22;9269;50.838;12.094;2023-07-30T01:38:14;22.70;48.30
18287;DHT22;9269;50.838;12.094;2023-07-30T01:40:43;22.70;48.40
18287;DHT22;9269;50.838;12.094;2023-07-30T01:43:12;22.70;48.60
18287;DHT22;9269;50.838;12.094;2023-07-30T01:45:40;22.70;48.00
18287;DHT22;9269;50.838;12.094;2023-07-30T01:48:09;22.60;48.30
18287;DHT22;9269;50.838;12.094;2023-07-30T01:50:37;22.60;48.70
18287;DHT22;9269;50.838;12.094;2023-07-30T01:53:06;22.60;48.80
18287;DHT22;9269;50.838;12.094;2023-07-30T01:55:36;22.60;48.90
18287;DHT22;9269;50.838;12.094;2023-07-30T01:58:05;22.60;48.90
18287;DHT22;9269;50.838;12.094;2023-07-30T02:00:34;22.60;48.40
18287;DHT22;9269;50.838;12.094;2023-07-30T02:03:03;22.60;48.70
18287;DHT22;9269;50.838;12.094;2023-07-30T02:05:32;22.60;48.60
18287;DHT22;9269;50.838;12.094;2023-07-30T02:08:01;22.60;48.40
18287;DHT22;9269;50.838;12.094;2023-07-30T02:10:29;22.50;48.30
18287;DHT22;9269;50.838;12.094;2023-07-30T02:12:59;22.50;48.20
18287;DHT22;9269;50.838;12.094;2023-07-30T02:15:28;22.50;48.30
18287;DHT22;9269;50.838;12.094;2023-07-30T02:17:56;22.40;48.10
18287;DHT22;9269;50.838;12.094;2023-07-30T02:20:25;22.40;48.00
18287;DHT22;9269;50.838;12.094;2023-07-30T02:22:53;22.40;48.00
18287;DHT22;9269;50.838;12.094;2023-07-30T02:25:22;22.40;48.30
18287;DHT22;9269;50.838;12.094;2023-07-30T02:27:50;22.30;48.10
18287;DHT22;9269;50.838;12.094;2023-07-30T02:30:20;22.40;48.10
18287;DHT22;9269;50.838;12.094;2023-07-30T02:32:49;22.30;48.30
18287;DHT22;9269;50.838;12.094;2023-07-30T02:35:17;22.30;48.10
18287;DHT22;9269;50.838;12.094;2023-07-30T02:37:45;22.30;48.50
18287;DHT22;9269;50.838;12.094;2023-07-30T02:40:14;22.20;48.50
18287;DHT22;9269;50.838;12.094;2023-07-30T02:42:42;22.20;48.30
18287;DHT22;9269;50.838;12.094;2023-07-30T02:45:11;22.20;48.80
18287;DHT22;9269;50.838;12.094;2023-07-30T02:47:40;22.20;48.70
18287;DHT22;9269;50.838;12.094;2023-07-30T02:50:09;22.20;48.50
18287;DHT22;9269;50.838;12.094;2023-07-30T02:52:38;22.20;48.40
18287;DHT22;9269;50.838;12.094;2023-07-30T02:55:08;22.20;48.40
18287;DHT22;9269;50.838;12.094;2023-07-30T02:57:36;22.30;48.40
18287;DHT22;9269;50.838;12.094;2023-07-30T03:00:06;22.30;48.10
18287;DHT22;9269;50.838;12.094;2023-07-30T03:02:35;22.20;48.30
18287;DHT22;9269;50.838;12.094;2023-07-30T03:05:06;22.30;48.00
18287;DHT22;9269;50.838;12.094;2023-07-30T03:07:35;22.30;48.60
18287;DHT22;9269;50.838;12.094;2023-07-30T03:10:04;22.40;48.70
18287;DHT22;9269;50.838;12.094;2023-07-30T03:12:33;22.40;48.50
18287;DHT22;9269;50.838;12.094;2023-07-30T03:15:01;22.40;48.90
18287;DHT22;9269;50.838;12.094;2023-07-30T03:17:30;22.30;48.70
18287;DHT22;9269;50.838;12.094;2023-07-30T03:19:58;22.30;49.20
18287;DHT22;9269;50.838;12.094;2023-07-30T03:22:28;22.40;49.70
18287;DHT22;9269;50.838;12.094;2023-07-30T03:24:56;22.30;49.00
18287;DHT22;9269;50.838;12.094;2023-07-30T03:27:25;22.30;48.80
18287;DHT22;9269;50.838;12.094;2023-07-30T03:29:53;22.30;48.90
18287;DHT22;9269;50.838;12.094;2023-07-30T03:32:22;22.30;48.60
18287;DHT22;9269;50.838;12.094;2023-07-30T03:34:50;22.30;48.70
18287;DHT22;9269;50.838;12.094;2023-07-30T03:37:19;22.30;48.70
18287;DHT22;9269;50.838;12.094;2023-07-30T03:39:48;22.30;48.60
18287;DHT22;9269;50.838;12.094;2023-07-30T03:42:17;22.30;48.60
18287;DHT22;9269;50.838;12.094;2023-07-30T03:44:46;22.30;48.80
18287;DHT22;9269;50.838;12.094;2023-07-30T03:47:15;22.20;49.10
18287;DHT22;9269;50.838;12.094;2023-07-30T03:49:43;22.30;48.90
18287;DHT22;9269;50.838;12.094;2023-07-30T03:52:12;22.20;48.60
18287;DHT22;9269;50.838;12.094;2023-07-30T03:54:40;22.30;48.60
18287;DHT22;9269;50.838;12.094;2023-07-30T03:57:10;22.30;49.10
18287;DHT22;9269;50.838;12.094;2023-07-30T03:59:39;22.30;48.80
18287;DHT22;9269;50.838;12.094;2023-07-30T04:02:07;22.30;49.10
18287;DHT22;9269;50.838;12.094;2023-07-30T04:04:36;22.30;49.20
18287;DHT22;9269;50.838;12.094;2023-07-30T04:07:04;22.30;49.30
18287;DHT22;9269;50.838;12.094;2023-07-30T04:09:33;22.30;48.80
18287;DHT22;9269;50.838;12.094;2023-07-30T04:12:01;22.30;49.30
18287;DHT22;9269;50.838;12.094;2023-07-30T04:14:32;22.40;49.10
18287;DHT22;9269;50.838;12.094;2023-07-30T04:17:03;22.30;49.30
18287;DHT22;9269;50.838;12.094;2023-07-30T04:19:34;22.40;49.10
18287;DHT22;9269;50.838;12.094;2023-07-30T04:22:03;22.40;49.00
18287;DHT22;9269;50.838;12.094;2023-07-30T04:24:31;22.40;49.20
18287;DHT22;9269;50.838;12.094;2023-07-30T04:27:00;22.50;49.40
18287;DHT22;9269;50.838;12.094;2023-07-30T04:29:29;22.40;49.10
18287;DHT22;9269;50.838;12.094;2023-07-30T04:31:59;22.40;49.30
18287;DHT22;9269;50.838;12.094;2023-07-30T04:34:27;22.40;49.00
18287;DHT22;9269;50.838;12.094;2023-07-30T04:36:59;22.40;49.00
18287;DHT22;9269;50.838;12.094;2023-07-30T04:39:29;22.40;49.10
18287;DHT22;9269;50.838;12.094;2023-07-30T04:41:58;22.40;49.20
18287;DHT22;9269;50.838;12.094;2023-07-30T04:44:27;22.40;49.30
18287;DHT22;9269;50.838;12.094;2023-07-30T04:46:56;22.40;48.90
18287;DHT22;9269;50.838;12.094;2023-07-30T04:49:25;22.50;49.20
18287;DHT22;9269;50.838;12.094;2023-07-30T04:51:54;22.40;49.10
18287;DHT22;9269;50.838;12.094;2023-07-30T04:54:22;22.50;49.30
18287;DHT22;9269;50.838;12.094;2023-07-30T04:56:51;22.50;48.90
18287;DHT22;9269;50.838;12.094;2023-07-30T04:59:19;22.40;49.20
18287;DHT22;9269;50.838;12.094;2023-07-30T05:01:51;22.50;49.00
18287;DHT22;9269;50.838;12.094;2023-07-30T05:04:20;22.50;49.00
18287;DHT22;9269;50.838;12.094;2023-07-30T05:06:58;22.50;49.00
18287;DHT22;9269;50.838;12.094;2023-07-30T05:09:27;22.50;48.90
18287;DHT22;9269;50.838;12.094;2023-07-30T05:11:55;22.50;48.80
18287;DHT22;9269;50.838;12.094;2023-07-30T05:14:24;22.70;48.60
18287;DHT22;9269;50.838;12.094;2023-07-30T05:16:52;22.60;48.90
18287;DHT22;9269;50.838;12.094;2023-07-30T05:19:21;22.60;48.80
18287;DHT22;9269;50.838;12.094;2023-07-30T05:21:49;22.60;48.70
18287;DHT22;9269;50.838;12.094;2023-07-30T05:24:19;22.60;48.60
18287;DHT22;9269;50.838;12.094;2023-07-30T05:26:47;22.70;48.90
18287;DHT22;9269;50.838;12.094;2023-07-30T05:29:16;22.70;48.90
18287;DHT22;9269;50.838;12.094;2023-07-30T05:31:44;22.60;49.00
18287;DHT22;9269;50.838;12.094;2023-07-30T05:34:13;22.70;48.80
18287;DHT22;9269;50.838;12.094;2023-07-30T05:36:41;22.70;49.30
18287;DHT22;9269;50.838;12.094;2023-07-30T05:39:09;22.70;49.40
18287;DHT22;9269;50.838;12.094;2023-07-30T05:41:39;22.80;49.10
18287;DHT22;9269;50.838;12.094;2023-07-30T05:44:08;22.80;49.20
18287;DHT22;9269;50.838;12.094;2023-07-30T05:46:36;22.80;49.10
18287;DHT22;9269;50.838;12.094;2023-07-30T05:49:04;22.90;49.30
18287;DHT22;9269;50.838;12.094;2023-07-30T05:51:33;22.90;48.90
18287;DHT22;9269;50.838;12.094;2023-07-30T05:54:01;22.90;48.90
18287;DHT22;9269;50.838;12.094;2023-07-30T05:56:30;23.00;49.10
18287;DHT22;9269;50.838;12.094;2023-07-30T05:59:00;23.00;49.20
18287;DHT22;9269;50.838;12.094;2023-07-30T06:01:28;23.10;49.10
18287;DHT22;9269;50.838;12.094;2023-07-30T06:03:56;23.10;48.80
18287;DHT22;9269;50.838;12.094;2023-07-30T06:06:25;23.20;49.10
18287;DHT22;9269;50.838;12.094;2023-07-30T06:08:55;23.20;49.10
18287;DHT22;9269;50.838;12.094;2023-07-30T06:11:25;23.30;49.00
18287;DHT22;9269;50.838;12.094;2023-07-30T06:13:54;23.30;49.00
18287;DHT22;9269;50.838;12.094;2023-07-30T06:16:24;23.40;48.80
18287;DHT22;9269;50.838;12.094;2023-07-30T06:18:53;23.40;49.10
18287;DHT22;9269;50.838;12.094;2023-07-30T06:21:21;23.40;49.40
18287;DHT22;9269;50.838;12.094;2023-07-30T06:23:50;23.50;49.50
18287;DHT22;9269;50.838;12.094;2023-07-30T06:26:19;23.60;49.70
18287;DHT22;9269;50.838;12.094;2023-07-30T06:28:47;23.60;49.40
18287;DHT22;9269;50.838;12.094;2023-07-30T06:31:15;23.60;48.70
18287;DHT22;9269;50.838;12.094;2023-07-30T06:33:45;23.70;48.60
18287;DHT22;9269;50.838;12.094;2023-07-30T06:36:15;23.90;48.50
18287;DHT22;9269;50.838;12.094;2023-07-30T06:38:44;23.90;48.00
18287;DHT22;9269;50.838;12.094;2023-07-30T06:41:13;24.00;48.40
18287;DHT22;9269;50.838;12.094;2023-07-30T06:43:42;24.20;48.10
18287;DHT22;9269;50.838;12.094;2023-07-30T06:46:10;24.20;48.30
18287;DHT22;9269;50.838;12.094;2023-07-30T06:48:39;24.30;48.20
18287;DHT22;9269;50.838;12.094;2023-07-30T06:51:09;24.40;47.90
18287;DHT22;9269;50.838;12.094;2023-07-30T06:53:40;24.40;47.90
18287;DHT22;9269;50.838;12.094;2023-07-30T06:56:08;24.50;47.90
18287;DHT22;9269;50.838;12.094;2023-07-30T06:58:36;24.70;47.80
18287;DHT22;9269;50.838;12.094;2023-07-30T07:01:07;24.80;47.20
18287;DHT22;9269;50.838;12.094;2023-07-30T07:03:35;25.00;46.70
18287;DHT22;9269;50.838;12.094;2023-07-30T07:06:04;25.10;46.60
18287;DHT22;9269;50.838;12.094;2023-07-30T07:08:34;25.30;46.20
18287;DHT22;9269;50.838;12.094;2023-07-30T07:11:02;25.50;46.20
18287;DHT22;9269;50.838;12.094;2023-07-30T07:13:30;25.60;46.10
18287;DHT22;9269;50.838;12.094;2023-07-30T07:15:59;25.80;45.70
18287;DHT22;9269;50.838;12.094;2023-07-30T07:18:27;25.80;45.70
18287;DHT22;9269;50.838;12.094;2023-07-30T07:20:56;25.90;45.10
18287;DHT22;9269;50.838;12.094;2023-07-30T07:23:25;25.90;44.90
18287;DHT22;9269;50.838;12.094;2023-07-30T07:25:55;25.90;44.90
18287;DHT22;9269;50.838;12.094;2023-07-30T07:28:24;25.90;44.30
18287;DHT22;9269;50.838;12.094;2023-07-30T07:30:54;26.00;44.10
18287;DHT22;9269;50.838;12.094;2023-07-30T07:33:23;26.10;44.20
18287;DHT22;9269;50.838;12.094;2023-07-30T07:35:51;26.20;43.90
18287;DHT22;9269;50.838;12.094;2023-07-30T07:38:19;26.30;43.60
18287;DHT22;9269;50.838;12.094;2023-07-30T07:40:48;26.40;42.50
18287;DHT22;9269;50.838;12.094;2023-07-30T07:43:19;26.60;41.80
18287;DHT22;9269;50.838;12.094;2023-07-30T07:45:48;26.60;41.60
18287;DHT22;9269;50.838;12.094;2023-07-30T07:48:16;26.60;41.20
18287;DHT22;9269;50.838;12.094;2023-07-30T07:50:45;26.80;41.30
18287;DHT22;9269;50.838;12.094;2023-07-30T07:53:13;26.80;41.00
18287;DHT22;9269;50.838;12.094;2023-07-30T07:55:42;27.00;40.30
18287;DHT22;9269;50.838;12.094;2023-07-30T07:58:10;27.20;40.30
18287;DHT22;9269;50.838;12.094;2023-07-30T08:00:40;27.20;40.10
18287;DHT22;9269;50.838;12.094;2023-07-30T08:03:09;27.20;39.90
18287;DHT22;9269;50.838;12.094;2023-07-30T08:05:39;27.30;38.20
18287;DHT22;9269;50.838;12.094;2023-07-30T08:08:08;27.40;38.70
18287;DHT22;9269;50.838;12.094;2023-07-30T08:10:38;27.30;38.40
18287;DHT22;9269;50.838;12.094;2023-07-30T08:13:08;27.30;38.80
18287;DHT22;9269;50.838;12.094;2023-07-30T08:15:45;27.30;38.30
18287;DHT22;9269;50.838;12.094;2023-07-30T08:18:14;27.30;38.50
18287;DHT22;9269;50.838;12.094;2023-07-30T08:20:43;27.30;38.40
18287;DHT22;9269;50.838;12.094;2023-07-30T08:23:12;27.30;38.10
18287;DHT22;9269;50.838;12.094;2023-07-30T08:25:40;27.30;38.10
18287;DHT22;9269;50.838;12.094;2023-07-30T08:28:08;27.20;38.30
18287;DHT22;9269;50.838;12.094;2023-07-30T08:30:37;27.30;37.80
18287;DHT22;9269;50.838;12.094;2023-07-30T08:33:07;27.30;37.40
18287;DHT22;9269;50.838;12.094;2023-07-30T08:35:36;27.50;37.80
18287;DHT22;9269;50.838;12.094;2023-07-30T08:38:05;27.60;37.60
18287;DHT22;9269;50.838;12.094;2023-07-30T08:40:34;27.70;37.50
18287;DHT22;9269;50.838;12.094;2023-07-30T08:43:03;27.80;37.50
18287;DHT22;9269;50.838;12.094;2023-07-30T08:45:32;27.80;36.90
18287;DHT22;9269;50.838;12.094;2023-07-30T08:48:01;27.90;36.80
18287;DHT22;9269;50.838;12.094;2023-07-30T08:50:31;27.80;37.20
18287;DHT22;9269;50.838;12.094;2023-07-30T08:53:03;27.80;37.10
18287;DHT22;9269;50.838;12.094;2023-07-30T08:55:33;27.90;36.90
18287;DHT22;9269;50.838;12.094;2023-07-30T08:58:04;28.00;37.10
18287;DHT22;9269;50.838;12.094;2023-07-30T09:00:35;28.00;36.90
18287;DHT22;9269;50.838;12.094;2023-07-30T09:03:05;28.10;36.30
18287;DHT22;9269;50.838;12.094;2023-07-30T09:05:37;28.10;35.90
18287;DHT22;9269;50.838;12.094;2023-07-30T09:08:06;28.10;36.40
18287;DHT22;9269;50.838;12.094;2023-07-30T09:10:35;28.20;35.70
18287;DHT22;9269;50.838;12.094;2023-07-30T09:13:03;28.20;35.80
18287;DHT22;9269;50.838;12.094;2023-07-30T09:15:32;28.20;35.90
18287;DHT22;9269;50.838;12.094;2023-07-30T09:18:02;28.20;36.30
18287;DHT22;9269;50.838;12.094;2023-07-30T09:20:38;28.30;35.70
18287;DHT22;9269;50.838;12.094;2023-07-30T09:23:08;28.30;35.10
18287;DHT22;9269;50.838;12.094;2023-07-30T09:25:37;28.30;34.40
18287;DHT22;9269;50.838;12.094;2023-07-30T09:28:06;28.30;34.40
18287;DHT22;9269;50.838;12.094;2023-07-30T09:30:34;28.40;34.10
18287;DHT22;9269;50.838;12.094;2023-07-30T09:33:03;28.60;34.00
18287;DHT22;9269;50.838;12.094;2023-07-30T09:35:33;28.70;33.50
18287;DHT22;9269;50.838;12.094;2023-07-30T09:38:04;29.00;33.00
18287;DHT22;9269;50.838;12.094;2023-07-30T09:40:33;29.00;32.90
18287;DHT22;9269;50.838;12.094;2023-07-30T09:43:03;29.20;32.20
18287;DHT22;9269;50.838;12.094;2023-07-30T09:45:34;29.40;31.60
18287;DHT22;9269;50.838;12.094;2023-07-30T09:48:04;29.50;32.00
18287;DHT22;9269;50.838;12.094;2023-07-30T09:50:35;29.60;31.60
18287;DHT22;9269;50.838;12.094;2023-07-30T09:53:05;29.50;30.80
18287;DHT22;9269;50.838;12.094;2023-07-30T09:55:34;29.30;30.90
18287;DHT22;9269;50.838;12.094;2023-07-30T09:58:03;29.20;31.20
18287;DHT22;9269;50.838;12.094;2023-07-30T10:00:33;29.10;31.50
18287;DHT22;9269;50.838;12.094;2023-07-30T10:03:01;29.00;32.10
18287;DHT22;9269;50.838;12.094;2023-07-30T10:05:33;29.00;32.00
18287;DHT22;9269;50.838;12.094;2023-07-30T10:08:08;28.90;30.90
18287;DHT22;9269;50.838;12.094;2023-07-30T10:10:38;28.60;31.00
18287;DHT22;9269;50.838;12.094;2023-07-30T10:13:08;28.70;31.20
18287;DHT22;9269;50.838;12.094;2023-07-30T10:15:38;29.00;31.30
18287;DHT22;9269;50.838;12.094;2023-07-30T10:18:07;29.30;29.60
18287;DHT22;9269;50.838;12.094;2023-07-30T10:20:36;29.50;29.70
18287;DHT22;9269;50.838;12.094;2023-07-30T10:23:06;29.50;29.00
18287;DHT22;9269;50.838;12.094;2023-07-30T10:25:46;29.40;29.50
18287;DHT22;9269;50.838;12.094;2023-07-30T10:28:31;29.30;29.80
18287;DHT22;9269;50.838;12.094;2023-07-30T10:31:01;29.30;29.70
18287;DHT22;9269;50.838;12.094;2023-07-30T10:33:45;29.20;30.30
18287;DHT22;9269;50.838;12.094;2023-07-30T10:36:17;29.20;30.20
18287;DHT22;9269;50.838;12.094;2023-07-30T10:38:47;29.30;29.90
18287;DHT22;9269;50.838;12.094;2023-07-30T10:41:16;29.30;29.90
18287;DHT22;9269;50.838;12.094;2023-07-30T10:43:47;29.30;29.60
18287;DHT22;9269;50.838;12.094;2023-07-30T10:46:17;29.40;29.60
18287;DHT22;9269;50.838;12.094;2023-07-30T10:51:21;29.90;29.10
18287;DHT22;9269;50.838;12.094;2023-07-30T10:53:52;30.20;27.90
18287;DHT22;9269;50.838;12.094;2023-07-30T10:56:23;30.30;27.60
18287;DHT22;9269;50.838;12.094;2023-07-30T10:58:53;30.40;28.00
18287;DHT22;9269;50.838;12.094;2023-07-30T11:01:24;30.20;28.20
18287;DHT22;9269;50.838;12.094;2023-07-30T11:03:54;30.30;28.30
18287;DHT22;9269;50.838;12.094;2023-07-30T11:06:23;30.50;28.40
18287;DHT22;9269;50.838;12.094;2023-07-30T11:08:53;30.70;27.90
18287;DHT22;9269;50.838;12.094;2023-07-30T11:11:22;31.00;27.30
18287;DHT22;9269;50.838;12.094;2023-07-30T11:13:53;31.10;27.20
18287;DHT22;9269;50.838;12.094;2023-07-30T11:16:21;31.10;26.60
18287;DHT22;9269;50.838;12.094;2023-07-30T11:18:50;31.30;26.50
18287;DHT22;9269;50.838;12.094;2023-07-30T11:21:19;31.50;26.80
18287;DHT22;9269;50.838;12.094;2023-07-30T11:23:50;31.60;26.70
18287;DHT22;9269;50.838;12.094;2023-07-30T11:26:20;31.80;26.20
18287;DHT22;9269;50.838;12.094;2023-07-30T11:28:49;31.90;25.80
18287;DHT22;9269;50.838;12.094;2023-07-30T11:31:19;32.00;25.50
18287;DHT22;9269;50.838;12.094;2023-07-30T11:33:49;32.20;24.90
18287;DHT22;9269;50.838;12.094;2023-07-30T11:36:21;32.10;23.90
18287;DHT22;9269;50.838;12.094;2023-07-30T11:38:51;32.20;24.30
18287;DHT22;9269;50.838;12.094;2023-07-30T11:41:23;32.30;24.70
18287;DHT22;9269;50.838;12.094;2023-07-30T11:43:53;32.20;24.30
18287;DHT22;9269;50.838;12.094;2023-07-30T11:46:22;32.10;24.40
18287;DHT22;9269;50.838;12.094;2023-07-30T11:48:52;31.90;24.10
18287;DHT22;9269;50.838;12.094;2023-07-30T11:51:23;31.80;24.90
18287;DHT22;9269;50.838;12.094;2023-07-30T11:53:53;31.60;24.50
18287;DHT22;9269;50.838;12.094;2023-07-30T11:56:25;31.60;23.70
18287;DHT22;9269;50.838;12.094;2023-07-30T11:58:55;31.60;24.20
18287;DHT22;9269;50.838;12.094;2023-07-30T12:01:26;31.40;24.80
18287;DHT22;9269;50.838;12.094;2023-07-30T12:03:55;31.40;25.10
18287;DHT22;9269;50.838;12.094;2023-07-30T12:06:38;31.30;25.20
18287;DHT22;9269;50.838;12.094;2023-07-30T12:09:11;31.20;24.90
18287;DHT22;9269;50.838;12.094;2023-07-30T12:11:53;31.10;25.30
18287;DHT22;9269;50.838;12.094;2023-07-30T12:14:25;31.00;25.00
18287;DHT22;9269;50.838;12.094;2023-07-30T12:16:58;30.90;25.30
18287;DHT22;9269;50.838;12.094;2023-07-30T12:19:27;30.90;25.50
18287;DHT22;9269;50.838;12.094;2023-07-30T12:21:55;30.80;25.30
18287;DHT22;9269;50.838;12.094;2023-07-30T12:24:24;30.70;25.30
18287;DHT22;9269;50.838;12.094;2023-07-30T12:26:54;30.60;25.30
18287;DHT22;9269;50.838;12.094;2023-07-30T12:29:22;30.50;24.90
18287;DHT22;9269;50.838;12.094;2023-07-30T12:31:52;30.50;25.40
18287;DHT22;9269;50.838;12.094;2023-07-30T12:34:23;30.50;25.40
18287;DHT22;9269;50.838;12.094;2023-07-30T12:36:52;30.50;24.90
18287;DHT22;9269;50.838;12.094;2023-07-30T12:39:21;30.30;25.00
18287;DHT22;9269;50.838;12.094;2023-07-30T12:41:53;30.10;24.80
18287;DHT22;9269;50.838;12.094;2023-07-30T12:44:22;30.00;25.10
18287;DHT22;9269;50.838;12.094;2023-07-30T12:46:50;29.80;24.90
18287;DHT22;9269;50.838;12.094;2023-07-30T12:49:19;29.80;24.40
18287;DHT22;9269;50.838;12.094;2023-07-30T12:51:47;29.70;24.80
18287;DHT22;9269;50.838;12.094;2023-07-30T12:54:16;29.70;25.00
18287;DHT22;9269;50.838;12.094;2023-07-30T12:56:45;29.60;24.70
18287;DHT22;9269;50.838;12.094;2023-07-30T12:59:15;29.50;24.70
18287;DHT22;9269;50.838;12.094;2023-07-30T13:01:45;29.50;24.70
18287;DHT22;9269;50.838;12.094;2023-07-30T13:04:15;29.30;24.70
18287;DHT22;9269;50.838;12.094;2023-07-30T13:06:44;29.20;25.10
18287;DHT22;9269;50.838;12.094;2023-07-30T13:09:13;29.00;26.00
18287;DHT22;9269;50.838;12.094;2023-07-30T13:11:41;28.90;26.20
18287;DHT22;9269;50.838;12.094;2023-07-30T13:14:10;28.70;27.30
18287;DHT22;9269;50.838;12.094;2023-07-30T13:16:41;28.30;28.10
18287;DHT22;9269;50.838;12.094;2023-07-30T13:19:09;28.20;28.50
18287;DHT22;9269;50.838;12.094;2023-07-30T13:21:38;28.20;29.10
18287;DHT22;9269;50.838;12.094;2023-07-30T13:24:07;28.20;29.10
18287;DHT22;9269;50.838;12.094;2023-07-30T13:26:36;28.50;29.20
18287;DHT22;9269;50.838;12.094;2023-07-30T13:29:05;28.50;29.40
18287;DHT22;9269;50.838;12.094;2023-07-30T13:31:34;28.60;28.80
18287;DHT22;9269;50.838;12.094;2023-07-30T13:34:04;28.70;29.20
18287;DHT22;9269;50.838;12.094;2023-07-30T13:36:33;28.80;29.00
18287;DHT22;9269;50.838;12.094;2023-07-30T13:39:01;28.90;28.90
18287;DHT22;9269;50.838;12.094;2023-07-30T13:41:30;29.00;29.20
18287;DHT22;9269;50.838;12.094;2023-07-30T13:43:58;29.40;28.20
18287;DHT22;9269;50.838;12.094;2023-07-30T13:46:27;29.70;27.70
18287;DHT22;9269;50.838;12.094;2023-07-30T13:48:55;30.00;27.80
18287;DHT22;9269;50.838;12.094;2023-07-30T13:51:25;30.20;27.10
18287;DHT22;9269;50.838;12.094;2023-07-30T13:53:59;30.30;26.20
18287;DHT22;9269;50.838;12.094;2023-07-30T13:56:28;30.20;25.60
18287;DHT22;9269;50.838;12.094;2023-07-30T13:58:57;30.10;25.20
18287;DHT22;9269;50.838;12.094;2023-07-30T14:01:26;29.80;24.60
18287;DHT22;9269;50.838;12.094;2023-07-30T14:03:54;29.60;23.90
18287;DHT22;9269;50.838;12.094;2023-07-30T14:06:24;29.40;24.40
18287;DHT22;9269;50.838;12.094;2023-07-30T14:08:53;29.20;24.70
18287;DHT22;9269;50.838;12.094;2023-07-30T14:11:22;29.10;25.30
18287;DHT22;9269;50.838;12.094;2023-07-30T14:13:51;29.10;25.60
18287;DHT22;9269;50.838;12.094;2023-07-30T14:16:19;29.10;25.10
18287;DHT22;9269;50.838;12.094;2023-07-30T14:18:47;29.10;25.90
18287;DHT22;9269;50.838;12.094;2023-07-30T14:21:16;29.10;25.60
18287;DHT22;9269;50.838;12.094;2023-07-30T14:23:46;29.10;25.60
18287;DHT22;9269;50.838;12.094;2023-07-30T14:26:15;29.20;25.60
18287;DHT22;9269;50.838;12.094;2023-07-30T14:28:43;29.20;25.60
18287;DHT22;9269;50.838;12.094;2023-07-30T14:31:12;29.10;25.50
18287;DHT22;9269;50.838;12.094;2023-07-30T14:33:41;29.10;26.00
18287;DHT22;9269;50.838;12.094;2023-07-30T14:36:10;29.20;25.20
18287;DHT22;9269;50.838;12.094;2023-07-30T14:38:39;29.00;26.10
18287;DHT22;9269;50.838;12.094;2023-07-30T14:41:09;29.00;26.00
18287;DHT22;9269;50.838;12.094;2023-07-30T14:43:38;28.70;26.40
18287;DHT22;9269;50.838;12.094;2023-07-30T14:46:06;28.60;26.30
18287;DHT22;9269;50.838;12.094;2023-07-30T14:48:41;28.40;26.90
18287;DHT22;9269;50.838;12.094;2023-07-30T14:51:10;28.50;26.90
18287;DHT22;9269;50.838;12.094;2023-07-30T14:53:39;28.60;27.20
18287;DHT22;9269;50.838;12.094;2023-07-30T14:56:09;28.70;27.10
18287;DHT22;9269;50.838;12.094;2023-07-30T14:58:38;28.90;26.90
18287;DHT22;9269;50.838;12.094;2023-07-30T15:01:07;28.90;26.70
18287;DHT22;9269;50.838;12.094;2023-07-30T15:03:38;28.70;26.30
18287;DHT22;9269;50.838;12.094;2023-07-30T15:06:07;28.50;25.60
18287;DHT22;9269;50.838;12.094;2023-07-30T15:08:35;28.30;25.50
18287;DHT22;9269;50.838;12.094;2023-07-30T15:11:04;28.20;25.80
18287;DHT22;9269;50.838;12.094;2023-07-30T15:13:34;28.00;25.50
18287;DHT22;9269;50.838;12.094;2023-07-30T15:16:03;27.80;25.50
18287;DHT22;9269;50.838;12.094;2023-07-30T15:18:32;27.70;25.70
18287;DHT22;9269;50.838;12.094;2023-07-30T15:21:00;27.60;26.00
18287;DHT22;9269;50.838;12.094;2023-07-30T15:23:29;27.60;26.30
18287;DHT22;9269;50.838;12.094;2023-07-30T15:25:58;27.60;25.80
18287;DHT22;9269;50.838;12.094;2023-07-30T15:28:26;27.50;25.70
18287;DHT22;9269;50.838;12.094;2023-07-30T15:30:56;27.50;26.10
18287;DHT22;9269;50.838;12.094;2023-07-30T15:33:25;27.50;25.20
18287;DHT22;9269;50.838;12.094;2023-07-30T15:35:53;27.40;25.50
18287;DHT22;9269;50.838;12.094;2023-07-30T15:38:22;27.40;25.10
18287;DHT22;9269;50.838;12.094;2023-07-30T15:40:50;27.30;24.80
18287;DHT22;9269;50.838;12.094;2023-07-30T15:43:19;27.40;24.80
18287;DHT22;9269;50.838;12.094;2023-07-30T15:45:47;27.30;24.80